createdAt,value
2019-01-04T00:00:45.996Z,2.65
2019-01-04T00:03:15.826Z,2.52
2019-01-04T00:05:45.450Z,2.62
2019-01-04T00:08:15.155Z,2.52
2019-01-04T00:10:44.884Z,2.42
2019-01-04T00:13:14.550Z,2.57
2019-01-04T00:15:44.173Z,2.50
2019-01-04T00:18:13.905Z,2.44
2019-01-04T00:20:43.644Z,2.41
2019-01-04T00:23:13.394Z,2.52
2019-01-04T00:25:43.009Z,2.51
2019-01-04T00:28:12.673Z,2.48
2019-01-04T00:30:42.415Z,2.41
2019-01-04T00:33:12.114Z,2.47
2019-01-04T00:35:41.757Z,2.51
2019-01-04T00:38:11.533Z,2.40
2019-01-04T00:40:41.230Z,2.56
2019-01-04T00:43:10.924Z,2.50
2019-01-04T00:45:40.654Z,2.30
2019-01-04T00:48:10.331Z,2.36
2019-01-04T00:50:40.031Z,2.18
2019-01-04T00:53:09.755Z,2.23
2019-01-04T00:56:08.815Z,2.14
2019-01-04T00:59:06.286Z,2.08
2019-01-04T01:02:12.114Z,2.21
2019-01-04T01:05:29.001Z,2.15
2019-01-04T01:09:10.372Z,2.18
2019-01-04T01:12:32.480Z,2.13
2019-01-04T01:15:58.499Z,2.29
2019-01-04T01:18:42.881Z,2.30
2019-01-04T01:21:25.337Z,2.33
2019-01-04T01:24:39.559Z,2.39
2019-01-04T01:27:39.421Z,2.13
2019-01-04T01:30:44.716Z,2.30
2019-01-04T01:33:50.064Z,2.43
2019-01-04T01:36:53.230Z,2.26
2019-01-04T01:40:07.660Z,2.39
2019-01-04T01:43:15.954Z,2.42
2019-01-04T01:46:21.216Z,2.39
2019-01-04T01:49:17.502Z,2.38
2019-01-04T01:52:05.439Z,2.28
2019-01-04T01:54:35.078Z,2.41
2019-01-04T01:57:04.770Z,2.52
2019-01-04T01:59:34.468Z,2.40
2019-01-04T02:02:04.187Z,2.40
2019-01-04T02:04:33.937Z,2.63
2019-01-04T02:07:03.716Z,2.55
2019-01-04T02:09:33.365Z,2.55
2019-01-04T02:12:02.999Z,2.66
2019-01-04T02:14:32.731Z,2.53
2019-01-04T02:17:02.444Z,2.54
2019-01-04T02:19:32.644Z,2.75
2019-01-04T02:22:02.319Z,2.65
2019-01-04T02:24:31.952Z,2.71
2019-01-04T02:27:01.593Z,2.54
2019-01-04T02:29:31.222Z,2.64
2019-01-04T02:32:00.886Z,2.77
2019-01-04T02:34:30.513Z,2.81
2019-01-04T02:37:00.237Z,2.78
2019-01-04T02:39:29.911Z,2.80
2019-01-04T02:41:59.563Z,2.76
2019-01-04T02:44:29.210Z,2.74
2019-01-04T02:46:58.831Z,2.82
2019-01-04T02:49:34.488Z,2.85
2019-01-04T02:52:04.094Z,2.72
2019-01-04T02:54:33.706Z,2.80
2019-01-04T02:57:03.331Z,2.85
2019-01-04T02:59:33.045Z,2.84
2019-01-04T03:02:03.259Z,2.84
2019-01-04T03:04:32.937Z,2.83
2019-01-04T03:07:02.588Z,2.69
2019-01-04T03:09:32.356Z,2.82
2019-01-04T03:12:02.003Z,2.83
2019-01-04T03:14:31.641Z,2.89
2019-01-04T03:17:01.293Z,2.87
2019-01-04T03:19:30.965Z,2.91
2019-01-04T03:22:00.574Z,2.90
2019-01-04T03:24:30.237Z,2.89
2019-01-04T03:26:59.888Z,2.94
2019-01-04T03:29:29.496Z,2.87
2019-01-04T03:31:59.138Z,3.02
2019-01-04T03:34:28.773Z,3.00
2019-01-04T03:36:58.390Z,2.98
2019-01-04T03:39:28.068Z,2.99
2019-01-04T03:41:57.781Z,3.10
2019-01-04T03:44:27.437Z,3.14
2019-01-04T03:46:57.169Z,3.09
2019-01-04T03:49:26.842Z,3.07
2019-01-04T03:51:56.552Z,3.09
2019-01-04T03:54:26.279Z,3.04
2019-01-04T03:56:55.952Z,3.07
2019-01-04T03:59:25.585Z,3.15
2019-01-04T04:01:55.304Z,3.19
2019-01-04T04:04:24.948Z,3.16
2019-01-04T04:06:54.655Z,3.19
2019-01-04T04:09:24.356Z,3.27
2019-01-04T04:11:54.002Z,3.22
2019-01-04T04:14:23.643Z,3.21
2019-01-04T04:16:53.248Z,3.29
2019-01-04T04:19:22.978Z,3.26
2019-01-04T04:21:52.624Z,3.28
2019-01-04T04:24:22.252Z,3.32
2019-01-04T04:26:51.870Z,3.28
2019-01-04T04:29:21.554Z,3.36
2019-01-04T04:31:51.229Z,3.30
2019-01-04T04:34:20.913Z,3.41
2019-01-04T04:36:50.536Z,3.30
2019-01-04T04:39:20.180Z,3.37
2019-01-04T04:41:49.837Z,3.42
2019-01-04T04:44:19.435Z,3.46
2019-01-04T04:46:49.071Z,3.41
2019-01-04T04:49:18.699Z,3.39
2019-01-04T04:51:48.327Z,3.37
2019-01-04T04:54:18.132Z,3.33
2019-01-04T04:56:47.789Z,3.49
2019-01-04T04:59:17.407Z,3.53
2019-01-04T05:01:47.132Z,3.40
2019-01-04T05:04:16.830Z,3.46
2019-01-04T05:06:46.477Z,3.46
2019-01-04T05:09:16.125Z,3.51
2019-01-04T05:11:45.821Z,3.42
2019-01-04T05:14:15.497Z,3.44
2019-01-04T05:16:45.122Z,3.47
2019-01-04T05:19:14.785Z,3.53
2019-01-04T05:21:44.509Z,3.48
2019-01-04T05:24:14.139Z,3.61
2019-01-04T05:26:43.778Z,3.54
2019-01-04T05:29:13.528Z,3.54
2019-01-04T05:31:43.182Z,3.50
2019-01-04T05:34:12.779Z,3.63
2019-01-04T05:36:42.587Z,3.64
2019-01-04T05:39:12.215Z,3.60
2019-01-04T05:41:41.853Z,3.64
2019-01-04T05:44:11.516Z,3.59
2019-01-04T05:46:41.221Z,3.67
2019-01-04T05:49:10.873Z,3.70
2019-01-04T05:51:40.523Z,3.72
2019-01-04T05:54:10.155Z,3.68
2019-01-04T05:56:39.797Z,3.68
2019-01-04T05:59:09.435Z,3.71
2019-01-04T06:01:39.071Z,3.73
2019-01-04T06:04:08.723Z,3.67
2019-01-04T06:06:38.373Z,3.82
2019-01-04T06:09:08.996Z,3.80
2019-01-04T06:11:38.644Z,3.82
2019-01-04T06:14:08.272Z,3.77
2019-01-04T06:16:37.938Z,3.78
2019-01-04T06:19:07.560Z,3.72
2019-01-04T06:21:37.239Z,3.75
2019-01-04T06:24:06.917Z,3.73
2019-01-04T06:26:36.553Z,3.83
2019-01-04T06:29:06.173Z,3.90
2019-01-04T06:31:35.794Z,3.74
2019-01-04T06:34:05.445Z,3.89
2019-01-04T06:36:35.155Z,3.82
2019-01-04T06:39:07.280Z,3.84
2019-01-04T06:41:37.022Z,3.75
2019-01-04T06:44:06.660Z,3.73
2019-01-04T06:46:57.134Z,3.82
2019-01-04T06:49:26.773Z,3.78
2019-01-04T06:51:56.452Z,3.88
2019-01-04T06:55:12.160Z,3.83
2019-01-04T06:57:41.913Z,3.81
2019-01-04T07:00:11.879Z,3.80
2019-01-04T07:02:41.572Z,3.88
2019-01-04T07:05:11.339Z,3.85
2019-01-04T07:07:41.071Z,3.82
2019-01-04T07:10:10.845Z,3.93
2019-01-04T07:12:40.469Z,3.92
2019-01-04T07:15:10.146Z,3.95
2019-01-04T07:17:39.742Z,4.05
2019-01-04T07:20:12.468Z,4.00
2019-01-04T07:22:42.103Z,3.91
2019-01-04T07:25:11.759Z,3.96
2019-01-04T07:27:41.375Z,3.95
2019-01-04T07:30:11.094Z,4.05
2019-01-04T07:32:40.737Z,4.08
2019-01-04T07:35:10.361Z,4.13
2019-01-04T07:37:39.975Z,4.00
2019-01-04T07:40:10.022Z,3.99
2019-01-04T07:42:39.749Z,4.01
2019-01-04T07:45:10.795Z,3.98
2019-01-04T07:47:40.523Z,4.12
2019-01-04T07:50:10.526Z,4.16
2019-01-04T07:52:43.104Z,4.14
2019-01-04T07:55:13.281Z,4.14
2019-01-04T07:57:43.004Z,4.16
2019-01-04T08:00:14.390Z,4.26
2019-01-04T08:02:48.667Z,4.22
2019-01-04T08:05:28.473Z,4.26
2019-01-04T08:07:58.188Z,4.15
2019-01-04T08:10:28.262Z,4.21
2019-01-04T08:12:57.989Z,4.16
2019-01-04T08:15:27.704Z,4.15
2019-01-04T08:17:58.257Z,4.21
2019-01-04T08:20:27.988Z,4.18
2019-01-04T08:22:57.639Z,4.17
2019-01-04T08:25:27.307Z,4.20
2019-01-04T08:27:57.367Z,4.30
2019-01-04T08:30:27.057Z,4.26
2019-01-04T08:32:56.759Z,4.39
2019-01-04T08:35:26.454Z,4.34
2019-01-04T08:37:56.115Z,4.33
2019-01-04T08:40:25.789Z,4.36
2019-01-04T08:42:55.438Z,4.40
2019-01-04T08:45:25.137Z,4.46
2019-01-04T08:47:54.854Z,4.50
2019-01-04T08:50:24.563Z,4.50
2019-01-04T08:52:54.204Z,4.50
2019-01-04T08:55:26.141Z,4.47
2019-01-04T08:57:55.810Z,4.41
2019-01-04T09:00:25.519Z,4.61
2019-01-04T09:02:55.203Z,4.65
2019-01-04T09:05:24.960Z,4.69
2019-01-04T09:07:54.576Z,4.61
2019-01-04T09:10:24.226Z,4.65
2019-01-04T09:12:53.926Z,4.67
2019-01-04T09:15:23.643Z,4.61
2019-01-04T09:17:53.292Z,4.79
2019-01-04T09:20:23.096Z,4.66
2019-01-04T09:22:52.744Z,4.76
2019-01-04T09:25:22.442Z,4.73
2019-01-04T09:27:52.238Z,4.76
2019-01-04T09:30:21.849Z,4.81
2019-01-04T09:32:51.481Z,4.76
2019-01-04T09:35:21.139Z,4.82
2019-01-04T09:37:50.751Z,4.76
2019-01-04T09:40:20.473Z,4.74
2019-01-04T09:42:50.126Z,4.81
2019-01-04T09:45:19.818Z,4.87
2019-01-04T09:47:49.515Z,4.85
2019-01-04T09:50:19.199Z,4.88
2019-01-04T09:52:48.810Z,4.87
2019-01-04T09:55:18.488Z,5.01
2019-01-04T09:57:48.166Z,4.95
2019-01-04T10:00:17.787Z,4.99
2019-01-04T10:02:47.409Z,5.08
2019-01-04T10:05:17.097Z,5.12
2019-01-04T10:07:46.826Z,5.08
2019-01-04T10:10:16.475Z,5.10
2019-01-04T10:12:46.198Z,5.11
2019-01-04T10:15:16.827Z,5.17
2019-01-04T10:17:46.477Z,5.16
2019-01-04T10:20:16.124Z,5.14
2019-01-04T10:22:45.822Z,5.10
2019-01-04T10:25:15.468Z,5.16
2019-01-04T10:27:45.122Z,5.11
2019-01-04T10:30:27.879Z,5.11
2019-01-04T10:32:57.526Z,5.14
2019-01-04T10:35:27.230Z,5.18
2019-01-04T10:37:56.981Z,5.23
2019-01-04T10:40:26.615Z,5.15
2019-01-04T10:42:56.358Z,5.14
2019-01-04T10:45:26.116Z,5.23
2019-01-04T10:47:55.772Z,5.16
2019-01-04T10:50:25.473Z,5.19
2019-01-04T10:52:55.192Z,5.26
2019-01-04T10:55:24.827Z,5.13
2019-01-04T10:58:00.563Z,5.20
2019-01-04T11:00:30.291Z,5.26
2019-01-04T11:02:59.910Z,5.27
2019-01-04T11:05:29.556Z,5.26
2019-01-04T11:07:59.257Z,5.31
2019-01-04T11:10:28.890Z,5.26
2019-01-04T11:12:58.538Z,5.30
2019-01-04T11:15:28.257Z,5.17
2019-01-04T11:17:57.966Z,5.31
2019-01-04T11:20:39.075Z,5.33
2019-01-04T11:23:52.890Z,5.42
2019-01-04T11:26:32.987Z,5.34
2019-01-04T11:29:39.706Z,5.25
2019-01-04T11:32:51.151Z,5.25
2019-01-04T11:36:09.623Z,5.40
2019-01-04T11:39:32.676Z,5.40
2019-01-04T11:42:50.838Z,5.41
2019-01-04T11:45:28.686Z,5.30
2019-01-04T11:48:58.479Z,5.39
2019-01-04T11:51:58.936Z,5.38
2019-01-04T11:54:30.118Z,5.47
2019-01-04T11:56:59.730Z,5.38
2019-01-04T11:59:29.371Z,5.38
2019-01-04T12:01:59.079Z,5.45
2019-01-04T12:04:28.848Z,5.58
2019-01-04T12:06:58.524Z,5.66
2019-01-04T12:09:28.527Z,5.65
2019-01-04T12:11:58.243Z,5.62
2019-01-04T12:14:27.928Z,5.70
2019-01-04T12:17:00.675Z,5.54
2019-01-04T12:19:30.324Z,5.63
2019-01-04T12:22:00.007Z,5.74
2019-01-04T12:24:29.746Z,5.67
2019-01-04T12:26:59.518Z,5.67
2019-01-04T12:29:29.167Z,5.61
2019-01-04T12:31:58.808Z,5.70
2019-01-04T12:34:28.479Z,5.73
2019-01-04T12:36:58.135Z,5.63
2019-01-04T12:39:27.830Z,5.65
2019-01-04T12:41:57.504Z,5.70
2019-01-04T12:44:27.174Z,5.77
2019-01-04T12:46:57.074Z,5.81
2019-01-04T12:49:26.726Z,5.72
2019-01-04T12:51:56.443Z,5.71
2019-01-04T12:54:26.302Z,5.72
2019-01-04T12:56:55.940Z,5.71
2019-01-04T12:59:25.646Z,5.63
2019-01-04T13:01:55.565Z,5.76
2019-01-04T13:04:25.323Z,5.75
2019-01-04T13:06:54.982Z,5.77
2019-01-04T13:09:24.908Z,5.71
2019-01-04T13:11:54.655Z,5.85
2019-01-04T13:14:24.346Z,5.82
2019-01-04T13:16:54.121Z,5.83
2019-01-04T13:19:25.843Z,5.83
2019-01-04T13:21:55.251Z,5.83
2019-01-04T13:24:25.004Z,5.82
2019-01-04T13:26:54.765Z,5.95
2019-01-04T13:29:24.491Z,5.93
2019-01-04T13:31:54.809Z,5.87
2019-01-04T13:34:24.558Z,5.90
2019-01-04T13:36:54.181Z,5.97
2019-01-04T13:39:23.821Z,6.02
2019-01-04T13:41:53.644Z,5.99
2019-01-04T13:44:23.296Z,6.09
2019-01-04T13:46:52.957Z,6.12
2019-01-04T13:49:25.902Z,6.09
2019-01-04T13:51:55.661Z,6.06
2019-01-04T13:54:25.385Z,6.14
2019-01-04T13:56:55.103Z,6.14
2019-01-04T13:59:24.711Z,6.18
2019-01-04T14:01:54.373Z,6.23
2019-01-04T14:04:24.113Z,6.30
2019-01-04T14:06:53.767Z,6.24
2019-01-04T14:09:23.507Z,6.28
2019-01-04T14:11:53.345Z,6.31
2019-01-04T14:14:23.027Z,6.35
2019-01-04T14:16:52.723Z,6.30
2019-01-04T14:19:22.453Z,6.36
2019-01-04T14:21:52.128Z,6.31
2019-01-04T14:24:21.862Z,6.30
2019-01-04T14:26:51.928Z,6.42
2019-01-04T14:29:21.554Z,6.40
2019-01-04T14:31:51.312Z,6.38
2019-01-04T14:34:21.000Z,6.40
2019-01-04T14:36:50.686Z,6.46
2019-01-04T14:39:20.397Z,6.39
2019-01-04T14:41:50.078Z,6.40
2019-01-04T14:44:19.814Z,6.45
2019-01-04T14:46:49.516Z,6.44
2019-01-04T14:49:19.154Z,6.43
2019-01-04T14:51:48.795Z,6.49
2019-01-04T14:54:18.474Z,6.51
2019-01-04T14:56:48.148Z,6.49
2019-01-04T14:59:17.905Z,6.54
2019-01-04T15:01:47.525Z,6.53
2019-01-04T15:04:17.210Z,6.55
2019-01-04T15:06:46.928Z,6.63
2019-01-04T15:09:16.648Z,6.64
2019-01-04T15:11:46.315Z,6.61
2019-01-04T15:14:15.959Z,6.57
2019-01-04T15:16:45.577Z,6.70
2019-01-04T15:19:15.239Z,6.59
2019-01-04T15:21:44.949Z,6.68
2019-01-04T15:24:14.576Z,6.72
2019-01-04T15:26:44.300Z,6.67
2019-01-04T15:29:13.944Z,6.73
2019-01-04T15:31:43.628Z,6.71
2019-01-04T15:34:13.285Z,6.82
2019-01-04T15:36:43.023Z,6.74
2019-01-04T15:39:12.745Z,6.80
2019-01-04T15:41:42.483Z,6.81
2019-01-04T15:44:12.096Z,6.81
2019-01-04T15:46:41.827Z,6.77
2019-01-04T15:49:11.551Z,6.76
2019-01-04T15:51:41.263Z,6.76
2019-01-04T15:54:11.021Z,6.86
2019-01-04T15:56:40.783Z,6.88
2019-01-04T15:59:12.948Z,6.81
2019-01-04T16:01:42.619Z,6.86
2019-01-04T16:04:12.316Z,6.87
2019-01-04T16:06:41.975Z,6.89
2019-01-04T16:09:11.627Z,6.86
2019-01-04T16:11:41.318Z,6.83
2019-01-04T16:14:10.994Z,6.83
2019-01-04T16:16:41.199Z,6.91
2019-01-04T16:19:11.343Z,6.86
2019-01-04T16:21:41.466Z,6.95
2019-01-04T16:24:11.113Z,6.97
2019-01-04T16:26:40.751Z,6.93
2019-01-04T16:29:10.417Z,6.93
2019-01-04T16:31:40.056Z,6.97
2019-01-04T16:34:09.737Z,7.00
2019-01-04T16:36:39.501Z,7.03
2019-01-04T16:39:09.871Z,7.03
2019-01-04T16:41:39.544Z,7.04
2019-01-04T16:44:09.199Z,6.99
2019-01-04T16:46:38.854Z,6.99
2019-01-04T16:49:08.676Z,7.08
2019-01-04T16:51:38.426Z,7.02
2019-01-04T16:54:10.950Z,7.07
2019-01-04T16:56:41.680Z,7.11
2019-01-04T16:59:11.356Z,7.10
2019-01-04T17:01:41.009Z,7.05
2019-01-04T17:04:10.744Z,7.13
2019-01-04T17:06:40.493Z,7.05
2019-01-04T17:09:11.369Z,7.03
2019-01-04T17:11:41.194Z,7.05
2019-01-04T17:14:10.834Z,7.11
2019-01-04T17:16:40.502Z,7.03
2019-01-04T17:19:10.133Z,7.10
2019-01-04T17:21:42.841Z,7.08
2019-01-04T17:24:12.517Z,7.11
2019-01-04T17:26:42.190Z,7.06
2019-01-04T17:29:11.840Z,7.08
2019-01-04T17:31:41.546Z,7.04
2019-01-04T17:34:11.288Z,6.99
2019-01-04T17:36:41.013Z,7.12
2019-01-04T17:39:12.103Z,7.12
2019-01-04T17:41:41.796Z,7.10
2019-01-04T17:44:11.427Z,7.17
2019-01-04T17:46:41.086Z,7.07
2019-01-04T17:49:10.862Z,7.09
2019-01-04T17:51:40.772Z,7.13
2019-01-04T17:54:10.426Z,7.17
2019-01-04T17:56:40.503Z,7.20
2019-01-04T17:59:10.187Z,7.14
2019-01-04T18:01:39.908Z,7.09
2019-01-04T18:04:09.645Z,7.23
2019-01-04T18:06:39.395Z,7.14
2019-01-04T18:09:09.101Z,7.12
2019-01-04T18:11:38.774Z,7.24
2019-01-04T18:14:08.588Z,7.15
2019-01-04T18:16:38.263Z,7.25
2019-01-04T18:19:07.906Z,7.33
2019-01-04T18:21:37.601Z,7.26
2019-01-04T18:24:07.301Z,7.21
2019-01-04T18:26:37.020Z,7.22
2019-01-04T18:29:06.749Z,7.24
2019-01-04T18:31:36.567Z,7.27
2019-01-04T18:34:06.324Z,7.33
2019-01-04T18:36:36.376Z,7.29
2019-01-04T18:39:06.990Z,7.28
2019-01-04T18:41:36.931Z,7.32
2019-01-04T18:44:06.613Z,7.26
2019-01-04T18:46:36.289Z,7.29
2019-01-04T18:49:06.068Z,7.29
2019-01-04T18:51:35.739Z,7.27
2019-01-04T18:54:05.499Z,7.32
2019-01-04T18:56:35.766Z,7.40
2019-01-04T18:59:05.601Z,7.37
2019-01-04T19:01:35.293Z,7.35
2019-01-04T19:04:05.039Z,7.38
2019-01-04T19:06:34.707Z,7.42
2019-01-04T19:09:05.765Z,7.51
2019-01-04T19:11:35.475Z,7.51
2019-01-04T19:14:05.174Z,7.44
2019-01-04T19:16:34.919Z,7.40
2019-01-04T19:19:04.629Z,7.41
2019-01-04T19:21:34.306Z,7.46
2019-01-04T19:24:04.197Z,7.40
2019-01-04T19:26:33.873Z,7.40
2019-01-04T19:29:03.938Z,7.40
2019-01-04T19:31:33.653Z,7.40
2019-01-04T19:34:03.362Z,7.43
2019-01-04T19:36:33.016Z,7.40
2019-01-04T19:39:02.958Z,7.40
2019-01-04T19:41:32.748Z,7.43
2019-01-04T19:44:02.415Z,7.53
2019-01-04T19:46:32.486Z,7.54
2019-01-04T19:49:02.248Z,7.50
2019-01-04T19:51:32.027Z,7.50
2019-01-04T19:54:01.755Z,7.45
2019-01-04T19:56:31.532Z,7.42
2019-01-04T19:59:01.297Z,7.42
2019-01-04T20:01:31.071Z,7.44
2019-01-04T20:04:01.239Z,7.54
2019-01-04T20:07:33.163Z,7.63
2019-01-04T20:11:00.556Z,7.45
2019-01-04T20:14:23.990Z,7.55
2019-01-04T20:17:12.425Z,7.51
2019-01-04T20:20:03.362Z,7.51
2019-01-04T20:22:51.006Z,7.58
2019-01-04T20:25:43.729Z,7.59
2019-01-04T20:28:27.570Z,7.56
2019-01-04T20:31:23.673Z,7.52
2019-01-04T20:34:17.338Z,7.73
2019-01-04T20:37:05.089Z,7.64
2019-01-04T20:40:09.249Z,7.66
2019-01-04T20:43:06.824Z,7.67
2019-01-04T20:45:58.542Z,7.68
2019-01-04T20:48:47.343Z,7.73
2019-01-04T20:51:36.047Z,7.72
2019-01-04T20:54:23.337Z,7.68
2019-01-04T20:57:24.171Z,7.74
2019-01-04T21:00:31.197Z,7.67
2019-01-04T21:03:14.688Z,7.72
2019-01-04T21:06:02.099Z,7.78
2019-01-04T21:08:48.826Z,7.81
2019-01-04T21:11:40.765Z,7.84
2019-01-04T21:14:28.274Z,7.81
2019-01-04T21:17:32.188Z,7.88
2019-01-04T21:20:21.220Z,7.90
2019-01-04T21:23:10.206Z,7.85
2019-01-04T21:26:11.457Z,7.89
2019-01-04T21:29:04.104Z,7.90
2019-01-04T21:31:54.465Z,7.85
2019-01-04T21:34:49.833Z,7.91
2019-01-04T21:37:39.204Z,7.91
2019-01-04T21:40:34.006Z,7.98
2019-01-04T21:43:30.358Z,7.96
2019-01-04T21:46:17.915Z,7.92
2019-01-04T21:49:15.931Z,7.96
2019-01-04T21:52:02.997Z,7.93
2019-01-04T21:55:03.507Z,8.06
2019-01-04T21:58:22.946Z,8.12
2019-01-04T22:01:21.566Z,8.11
2019-01-04T22:04:15.518Z,8.02
2019-01-04T22:07:19.806Z,8.01
2019-01-04T22:10:15.076Z,7.98
2019-01-04T22:13:14.774Z,7.99
2019-01-04T22:16:08.208Z,8.07
2019-01-04T22:19:15.647Z,8.09
2019-01-04T22:22:10.795Z,8.11
2019-01-04T22:25:05.406Z,8.11
2019-01-04T22:27:57.105Z,8.10
2019-01-04T22:30:41.228Z,8.11
2019-01-04T22:33:38.055Z,8.17
2019-01-04T22:36:25.509Z,8.17
2019-01-04T22:39:14.707Z,8.21
2019-01-04T22:42:02.315Z,8.15
2019-01-04T22:44:50.094Z,8.15
2019-01-04T22:47:37.387Z,8.16
2019-01-04T22:50:29.143Z,8.15
2019-01-04T22:53:28.403Z,8.20
2019-01-04T22:56:28.246Z,8.15
2019-01-04T22:59:16.956Z,8.13
2019-01-04T23:02:08.297Z,8.08
2019-01-04T23:05:12.159Z,8.15
2019-01-04T23:08:01.754Z,8.15
2019-01-04T23:10:53.330Z,8.13
2019-01-04T23:13:50.961Z,8.23
2019-01-04T23:16:42.392Z,8.16
2019-01-04T23:19:35.151Z,8.29
2019-01-04T23:22:33.239Z,8.31
2019-01-04T23:25:21.623Z,8.26
2019-01-04T23:28:29.805Z,8.26
2019-01-04T23:31:28.160Z,8.24
2019-01-04T23:34:15.205Z,8.24
2019-01-04T23:37:06.720Z,8.37
2019-01-04T23:40:00.040Z,8.27
2019-01-04T23:42:55.699Z,8.30
2019-01-04T23:45:59.252Z,8.24
2019-01-04T23:48:53.398Z,8.23
2019-01-04T23:51:51.898Z,8.28
2019-01-04T23:54:56.304Z,8.32
2019-01-04T23:57:44.059Z,8.24
